Time;durP1;ratioP1;P1;durP2;ratioP2;P2;SDS_P1;SDS_P2;PMS_P1;PMS_P2;Temp;Humidity;BMP_temperature;BMP_pressure;BME280_temperature;BME280_humidity;BME280_pressure;Samples;Min_cycle;Max_cycle;Signal;HPM_P1;HPM_P2
2021/05/24 01:09:51;;;;;;;1.20;0.60;;;;;;;15.10;100.00;98695.44;1844122;77;25111;-70
2021/05/24 01:12:42;;;;;;;1.90;0.60;;;;;;;15.33;100.00;98709.34;1842656;77;21399;-70
2021/05/24 01:17:57;;;;;;;0.53;0.50;;;;;;;15.62;100.00;98737.70;1758813;77;21545;-71
2021/05/24 01:20:27;;;;;;;2.12;0.70;;;;;;;15.71;100.00;98737.84;1830435;77;21442;-71
2021/05/24 01:28:40;;;;;;;1.50;0.60;;;;;;;15.96;100.00;98736.55;1790826;77;21441;-70
2021/05/24 01:31:14;;;;;;;2.60;0.60;;;;;;;16.02;100.00;98729.23;1842339;77;20918;-70
2021/05/24 01:33:48;;;;;;;1.00;0.62;;;;;;;15.67;100.00;98723.78;1813645;77;21044;-69
2021/05/24 01:36:40;;;;;;;;;;;;;;;;;;;;;
2021/05/24 01:39:32;;;;;;;1.17;0.80;;;;;;;15.58;100.00;98733.83;1827431;77;21534;-71
2021/05/24 01:42:18;;;;;;;1.85;0.60;;;;;;;15.56;100.00;98739.62;1843642;77;21581;-70
2021/05/24 01:44:50;;;;;;;2.00;0.78;;;;;;;15.55;100.00;98743.20;1841774;77;22449;-70
2021/05/24 01:47:22;;;;;;;3.55;0.75;;;;;;;15.57;100.00;98747.55;1836619;77;20909;-70
2021/05/24 01:50:15;;;;;;;2.22;1.20;;;;;;;15.56;100.00;98736.96;1844004;77;20909;-70
2021/05/24 01:53:22;;;;;;;1.45;1.30;;;;;;;15.51;100.00;98737.57;1838538;77;21414;-70
2021/05/24 01:55:47;;;;;;;1.20;0.80;;;;;;;15.44;100.00;98737.77;1832287;77;21403;-72
2021/05/24 01:58:27;;;;;;;3.17;1.07;;;;;;;15.38;100.00;98733.11;1809396;77;21438;-71
2021/05/24 02:01:12;;;;;;;1.37;0.80;;;;;;;15.31;100.00;98730.24;1836841;77;21376;-71
2021/05/24 02:04:03;;;;;;;2.55;1.25;;;;;;;15.29;100.00;98736.94;1843951;77;21399;-71
2021/05/24 02:06:56;;;;;;;1.82;1.00;;;;;;;15.27;100.00;98740.56;1816661;77;21466;-70
2021/05/24 02:12:20;;;;;;;1.32;0.88;;;;;;;15.18;100.00;98732.42;1828450;77;21482;-70
2021/05/24 02:14:56;;;;;;;4.17;1.12;;;;;;;15.20;100.00;98735.03;1838966;77;21408;-71
2021/05/24 02:17:35;;;;;;;3.95;0.95;;;;;;;15.23;100.00;98737.59;1841914;77;21404;-71
2021/05/24 02:20:11;;;;;;;1.70;0.80;;;;;;;15.26;100.00;98745.00;1841530;77;21371;-69
2021/05/24 02:22:48;;;;;;;4.58;1.00;;;;;;;15.22;100.00;98755.77;1846611;77;21034;-69
2021/05/24 02:25:29;;;;;;;1.60;0.75;;;;;;;15.21;100.00;98751.37;1843930;77;21367;-69
2021/05/24 02:28:00;;;;;;;3.00;1.40;;;;;;;15.23;100.00;98761.04;1846856;77;21380;-68
2021/05/24 02:30:36;;;;;;;3.05;0.85;;;;;;;15.22;100.00;98767.73;1839852;77;21426;-69
2021/05/24 02:33:06;;;;;;;1.42;0.70;;;;;;;15.23;100.00;98770.80;1846072;77;20876;-69
2021/05/24 02:35:36;;;;;;;1.95;1.10;;;;;;;15.23;100.00;98774.33;1846678;77;24550;-69
2021/05/24 02:38:09;;;;;;;1.42;0.65;;;;;;;15.24;100.00;98777.85;1846512;77;21435;-69
2021/05/24 02:40:38;;;;;;;2.90;0.80;;;;;;;15.25;100.00;98775.61;1846595;77;20904;-69
2021/05/24 02:43:12;;;;;;;2.27;0.65;;;;;;;15.27;100.00;98779.09;1846577;77;20917;-69
2021/05/24 02:45:47;;;;;;;1.70;0.85;;;;;;;15.29;100.00;98778.58;1845496;77;21427;-67
2021/05/24 02:48:16;;;;;;;3.15;1.30;;;;;;;15.28;100.00;98779.05;1846653;77;21415;-64
2021/05/24 02:50:47;;;;;;;3.17;1.47;;;;;;;15.23;100.00;98795.58;1846554;77;21418;-68
2021/05/24 02:53:15;;;;;;;4.03;1.85;;;;;;;15.22;100.00;98796.50;1846627;77;20878;-68
2021/05/24 02:55:50;;;;;;;4.05;1.77;;;;;;;15.25;100.00;98798.20;1846581;77;20925;-66
2021/05/24 02:58:19;;;;;;;7.33;1.40;;;;;;;15.26;100.00;98809.23;1845881;77;21375;-65
2021/05/24 03:00:49;;;;;;;4.05;1.40;;;;;;;15.25;100.00;98816.34;1845015;77;21019;-71
2021/05/24 03:03:22;;;;;;;3.17;1.10;;;;;;;15.26;100.00;98818.53;1846815;77;21399;-67
2021/05/24 03:05:49;;;;;;;;;;;;;;;15.26;100.00;98829.16;1849335;77;20873;-64
2021/05/24 03:08:22;;;;;;;2.58;1.40;;;;;;;15.24;100.00;98834.52;1845493;77;20475;-64
2021/05/24 03:10:57;;;;;;;2.72;1.22;;;;;;;15.22;100.00;98830.17;1843321;77;21490;-72
2021/05/24 03:13:26;;;;;;;1.30;1.10;;;;;;;15.17;100.00;98840.06;1842443;77;21450;-67
2021/05/24 03:15:55;;;;;;;3.10;1.57;;;;;;;15.14;100.00;98850.33;1843256;77;21446;-60
2021/05/24 03:18:27;;;;;;;3.67;1.70;;;;;;;15.15;100.00;98851.20;1843233;77;21525;-64
2021/05/24 03:20:58;;;;;;;2.20;1.30;;;;;;;15.15;100.00;98860.50;1842025;77;21356;-67
2021/05/24 03:23:30;;;;;;;5.25;2.05;;;;;;;15.11;100.00;98859.68;1843278;77;21447;-65
2021/05/24 03:26:01;;;;;;;4.95;1.80;;;;;;;15.07;100.00;98858.90;1839553;77;21320;-65
2021/05/24 03:28:28;;;;;;;2.05;1.40;;;;;;;15.03;100.00;98865.22;1843092;77;20953;-64
2021/05/24 03:31:02;;;;;;;2.40;1.20;;;;;;;15.00;100.00;98869.29;1843250;77;21495;-65
2021/05/24 03:33:35;;;;;;;2.30;1.42;;;;;;;14.97;100.00;98869.38;1842864;77;20897;-65
2021/05/24 03:36:06;;;;;;;2.50;1.40;;;;;;;14.87;100.00;98862.59;1831423;77;20905;-65
2021/05/24 03:38:34;;;;;;;4.22;1.35;;;;;;;14.79;100.00;98863.25;1800904;78;21470;-65
2021/05/24 03:41:03;;;;;;;2.20;1.02;;;;;;;14.70;100.00;98860.40;1802564;78;21375;-64
2021/05/24 03:43:37;;;;;;;1.32;1.10;;;;;;;14.68;100.00;98865.33;1798345;78;21376;-66
2021/05/24 03:46:08;;;;;;;1.17;0.90;;;;;;;14.58;100.00;98861.16;1824775;77;21446;-66
2021/05/24 03:48:38;;;;;;;2.33;1.50;;;;;;;14.56;100.00;98868.29;1849613;77;21430;-76
2021/05/24 03:51:08;;;;;;;2.92;1.30;;;;;;;14.51;100.00;98865.76;1821357;78;21588;-64
2021/05/24 03:53:36;;;;;;;2.47;1.10;;;;;;;14.49;100.00;98867.13;1853832;77;20873;-70
2021/05/24 03:56:05;;;;;;;2.40;1.12;;;;;;;14.51;100.00;98870.19;1820290;78;20861;-69
2021/05/24 03:58:34;;;;;;;1.57;1.00;;;;;;;14.54;100.00;98874.97;1820240;78;20941;-69
2021/05/24 04:01:02;;;;;;;1.65;1.20;;;;;;;14.57;100.00;98880.64;1820363;78;20932;-69
2021/05/24 04:03:30;;;;;;;2.02;1.10;;;;;;;14.60;100.00;98879.23;1820373;78;21748;-68
2021/05/24 04:06:02;;;;;;;1.45;0.95;;;;;;;14.60;100.00;98878.78;1853833;77;21802;-69
2021/05/24 04:08:37;;;;;;;2.67;1.10;;;;;;;14.60;100.00;98889.86;1820601;78;20988;-68
2021/05/24 04:11:03;;;;;;;3.50;1.30;;;;;;;14.62;100.00;98895.99;1822051;78;20948;-68
2021/05/24 04:13:31;;;;;;;3.20;1.10;;;;;;;14.63;100.00;98899.06;1824024;78;20940;-68
2021/05/24 04:15:58;;;;;;;1.90;1.40;;;;;;;14.63;100.00;98903.05;1823963;78;21553;-68
2021/05/24 04:18:29;;;;;;;3.75;1.10;;;;;;;14.62;100.00;98898.20;1823852;78;20904;-67
2021/05/24 04:20:58;;;;;;;2.58;1.07;;;;;;;14.58;100.00;98903.17;1823945;78;20889;-68
2021/05/24 04:23:26;;;;;;;3.30;1.60;;;;;;;14.56;100.00;98901.47;1794470;78;20905;-68
2021/05/24 04:25:54;;;;;;;3.72;1.20;;;;;;;14.57;100.00;98903.20;1823963;78;21426;-68
2021/05/24 04:28:22;;;;;;;1.87;1.20;;;;;;;14.56;100.00;98908.97;1823947;78;20960;-68
2021/05/24 04:30:51;;;;;;;2.70;1.30;;;;;;;14.56;100.00;98913.41;1823893;78;20901;-68
2021/05/24 04:33:19;;;;;;;5.22;1.37;;;;;;;14.56;100.00;98914.73;1823941;78;20865;-68
2021/05/24 04:35:48;;;;;;;2.70;1.42;;;;;;;14.54;100.00;98921.87;1823964;78;20889;-67
2021/05/24 04:38:17;;;;;;;2.50;1.12;;;;;;;14.52;100.00;98923.23;1823994;78;20880;-68
2021/05/24 04:40:53;;;;;;;3.90;1.27;;;;;;;14.49;100.00;98929.49;1823922;78;21030;-68
2021/05/24 04:43:27;;;;;;;2.33;1.20;;;;;;;14.50;100.00;98942.31;1823884;78;20900;-68
2021/05/24 04:45:54;;;;;;;2.55;1.40;;;;;;;14.48;100.00;98942.80;1823897;78;21441;-67
2021/05/24 04:48:25;;;;;;;3.35;1.62;;;;;;;14.48;100.00;98956.08;1823947;78;20897;-67
2021/05/24 04:50:55;;;;;;;2.95;1.35;;;;;;;14.49;100.00;98961.80;1817860;78;21391;-68
2021/05/24 04:53:23;;;;;;;2.55;1.40;;;;;;;14.51;100.00;98967.06;1823952;78;20948;-67
2021/05/24 04:55:51;;;;;;;1.40;1.30;;;;;;;14.51;100.00;98973.70;1823857;78;21455;-67
2021/05/24 04:58:21;;;;;;;3.45;1.32;;;;;;;14.47;100.00;98985.72;1824002;78;20908;-67
2021/05/24 05:00:49;;;;;;;3.60;1.40;;;;;;;14.45;100.00;98985.34;1823719;78;20920;-68
2021/05/24 05:03:17;;;;;;;2.77;1.30;;;;;;;14.47;100.00;98995.47;1824009;78;20932;-68
2021/05/24 05:05:45;;;;;;;4.12;1.35;;;;;;;14.47;100.00;99001.64;1823975;78;21574;-67
2021/05/24 05:08:14;;;;;;;3.55;1.40;;;;;;;14.46;100.00;99008.31;1789711;79;21370;-68
2021/05/24 05:10:42;;;;;;;5.00;1.42;;;;;;;14.45;100.00;99010.10;1849566;77;20897;-68
2021/05/24 05:13:11;;;;;;;2.70;1.22;;;;;;;14.44;100.00;99014.12;1826588;78;20924;-67
2021/05/24 05:15:42;;;;;;;3.22;1.50;;;;;;;14.43;100.00;99019.88;1860276;77;20869;-68
2021/05/24 05:18:14;;;;;;;2.30;1.30;;;;;;;14.42;100.00;99032.73;1824756;78;21391;-68
2021/05/24 05:20:53;;;;;;;3.12;1.20;;;;;;;14.40;100.00;99035.84;1860123;77;21395;-67
2021/05/24 05:23:18;;;;;;;2.00;1.10;;;;;;;14.32;100.00;99039.58;1826134;78;21490;-68
2021/05/24 05:25:46;;;;;;;3.72;1.30;;;;;;;14.29;100.00;99045.83;1860141;77;20885;-67
2021/05/24 05:28:15;;;;;;;1.80;1.07;;;;;;;14.32;100.00;99057.70;1826559;78;21411;-67
2021/05/24 05:30:45;;;;;;;1.85;1.20;;;;;;;14.29;100.00;99059.10;1826497;78;21462;-66
2021/05/24 05:33:15;;;;;;;1.95;1.25;;;;;;;14.30;100.00;99070.13;1825298;78;21404;-67
2021/05/24 05:35:49;;;;;;;4.15;1.50;;;;;;;14.29;100.00;99072.82;1821919;78;21487;-67
2021/05/24 05:38:17;;;;;;;2.45;1.57;;;;;;;14.30;100.00;99079.42;1860351;77;20936;-68
2021/05/24 05:40:47;;;;;;;2.35;1.62;;;;;;;14.30;100.00;99085.18;1826604;78;21410;-67
2021/05/24 05:43:21;;;;;;;1.17;0.88;;;;;;;14.27;100.00;99086.58;1826547;78;21624;-67
2021/05/24 05:45:47;;;;;;;2.42;1.22;;;;;;;14.22;100.00;99088.00;1826280;78;21404;-67
2021/05/24 05:48:17;;;;;;;1.87;0.98;;;;;;;14.16;100.00;99093.41;1826738;78;21415;-67
2021/05/24 05:50:46;;;;;;;2.33;1.00;;;;;;;14.15;100.00;99096.97;1860401;77;20889;-67
2021/05/24 05:53:13;;;;;;;1.32;0.88;;;;;;;14.17;100.00;99105.77;1826687;78;21391;-68
2021/05/24 05:55:41;;;;;;;3.58;1.60;;;;;;;14.18;100.00;99112.81;1860377;77;20959;-69
2021/05/24 05:58:11;;;;;;;4.28;1.40;;;;;;;14.17;100.00;99114.59;1826526;77;21030;-69
2021/05/24 06:00:39;;;;;;;3.33;1.00;;;;;;;14.15;100.00;99121.72;1860039;77;20865;-69
2021/05/24 06:03:09;;;;;;;1.92;1.10;;;;;;;14.15;100.00;99124.37;1826634;77;20899;-69
2021/05/24 06:05:36;;;;;;;2.60;0.95;;;;;;;14.14;100.00;99128.38;1860404;77;20889;-68
2021/05/24 06:08:04;;;;;;;1.25;0.80;;;;;;;14.13;100.00;99137.24;1826646;78;21046;-69
2021/05/24 06:10:32;;;;;;;2.08;1.10;;;;;;;14.13;100.00;99140.77;1860286;77;20861;-69
2021/05/24 06:13:00;;;;;;;0.62;0.50;;;;;;;14.12;100.00;99138.15;1824270;78;21347;-68
2021/05/24 06:15:28;;;;;;;1.67;0.93;;;;;;;14.05;100.00;99151.98;1823985;78;20917;-68
2021/05/24 06:17:55;;;;;;;8.08;1.60;;;;;;;14.01;100.00;99150.30;1823984;78;21566;-67
2021/05/24 06:20:23;;;;;;;1.90;1.05;;;;;;;14.00;100.00;99155.64;1824072;78;20954;-67
2021/05/24 06:22:51;;;;;;;4.30;0.88;;;;;;;14.00;100.00;99164.47;1823976;78;20890;-67
2021/05/24 06:25:19;;;;;;;1.60;0.70;;;;;;;14.02;100.00;99171.07;1824015;78;20875;-68
2021/05/24 06:27:47;;;;;;;2.42;0.78;;;;;;;14.05;100.00;99172.33;1823999;78;21442;-67
2021/05/24 06:30:16;;;;;;;3.80;0.90;;;;;;;14.03;100.00;99172.36;1824060;78;20897;-67
2021/05/24 06:32:44;;;;;;;1.00;0.70;;;;;;;14.02;100.00;99173.72;1824002;78;21025;-68
2021/05/24 06:35:12;;;;;;;1.60;0.90;;;;;;;13.99;100.00;99186.59;1823982;78;21371;-68
2021/05/24 06:37:39;;;;;;;1.20;0.80;;;;;;;13.97;100.00;99191.05;1824034;78;20869;-68
2021/05/24 06:40:09;;;;;;;2.27;0.68;;;;;;;13.99;100.00;99185.72;1824069;78;20873;-68
2021/05/24 06:42:36;;;;;;;0.85;0.80;;;;;;;13.98;100.00;99195.45;1824068;78;20864;-68
2021/05/24 06:45:06;;;;;;;1.77;0.85;;;;;;;13.98;100.00;99191.92;1824033;78;20975;-68
2021/05/24 06:47:33;;;;;;;1.27;1.00;;;;;;;13.94;100.00;99202.17;1794245;78;20928;-68
2021/05/24 06:50:01;;;;;;;1.52;0.90;;;;;;;13.90;100.00;99209.75;1824010;78;20884;-68
2021/05/24 06:52:29;;;;;;;4.97;0.90;;;;;;;13.89;100.00;99206.69;1824009;78;20912;-68
2021/05/24 06:54:57;;;;;;;0.82;0.82;;;;;;;13.88;100.00;99213.77;1824097;78;20889;-67
2021/05/24 06:57:25;;;;;;;1.55;1.25;;;;;;;13.86;100.00;99215.12;1824036;78;21043;-68
2021/05/24 06:59:53;;;;;;;2.00;1.17;;;;;;;13.83;100.00;99220.92;1823933;78;21454;-68
2021/05/24 07:02:21;;;;;;;2.55;0.90;;;;;;;13.80;100.00;99232.91;1824010;78;20916;-68
2021/05/24 07:04:48;;;;;;;1.92;1.00;;;;;;;13.79;100.00;99243.97;1823981;78;20984;-68
2021/05/24 07:07:16;;;;;;;2.20;1.00;;;;;;;13.78;100.00;99239.57;1824013;78;21014;-68
2021/05/24 07:09:44;;;;;;;2.35;0.95;;;;;;;13.76;100.00;99250.66;1823976;78;21002;-68
2021/05/24 07:12:12;;;;;;;2.65;1.00;;;;;;;13.76;100.00;99249.33;1836938;76;20904;-68
2021/05/24 07:14:42;;;;;;;2.00;1.40;;;;;;;13.76;100.00;99255.95;1857639;76;20908;-67
2021/05/24 07:17:09;;;;;;;1.85;1.07;;;;;;;13.77;100.00;99260.36;1857622;76;20846;-67
2021/05/24 07:19:37;;;;;;;2.00;1.10;;;;;;;13.80;100.00;99267.38;1857629;77;20881;-68
2021/05/24 07:22:04;;;;;;;1.90;0.90;;;;;;;13.80;100.00;99272.23;1857668;76;21047;-67
2021/05/24 07:24:32;;;;;;;1.57;1.02;;;;;;;13.76;100.00;99270.53;1826894;77;20916;-68
2021/05/24 07:27:00;;;;;;;1.85;1.20;;;;;;;13.73;100.00;99282.97;1857612;77;20907;-68
2021/05/24 07:29:29;;;;;;;2.37;1.30;;;;;;;13.68;100.00;99280.36;1857584;76;20889;-68
2021/05/24 07:31:59;;;;;;;2.40;1.40;;;;;;;13.63;100.00;99288.84;1857714;76;20885;-68
2021/05/24 07:34:26;;;;;;;3.33;1.67;;;;;;;13.56;100.00;99293.81;1857638;76;21590;-68
2021/05/24 07:36:56;;;;;;;2.20;1.50;;;;;;;13.49;100.00;99298.34;1857494;76;20904;-67
2021/05/24 07:39:24;;;;;;;3.85;1.75;;;;;;;13.46;100.00;99304.14;1857641;76;20920;-68
2021/05/24 07:41:52;;;;;;;3.00;2.25;;;;;;;13.44;100.00;99306.81;1857565;76;20953;-68
2021/05/24 07:44:20;;;;;;;7.25;3.12;;;;;;;13.46;100.00;99302.81;1857638;76;20992;-69
2021/05/24 07:46:51;;;;;;;3.87;3.05;;;;;;;13.48;100.00;99302.34;1857607;76;21077;-68
2021/05/24 07:49:20;;;;;;;4.08;1.90;;;;;;;13.50;100.00;99317.77;1857483;77;20877;-68
2021/05/24 07:51:49;;;;;;;2.67;1.52;;;;;;;13.54;100.00;99326.97;1857559;76;20861;-69
2021/05/24 07:54:18;;;;;;;3.70;2.35;;;;;;;13.62;100.00;99336.58;1857608;77;20904;-68
2021/05/24 07:56:45;;;;;;;6.10;3.65;;;;;;;13.70;100.00;99343.52;1857592;76;20894;-67
2021/05/24 07:59:14;;;;;;;8.03;2.90;;;;;;;13.79;100.00;99342.52;1857563;77;21399;-68
2021/05/24 08:01:42;;;;;;;6.05;2.80;;;;;;;13.89;100.00;99340.59;1857457;77;21328;-68
2021/05/24 08:04:10;;;;;;;4.75;1.85;;;;;;;14.00;100.00;99336.86;1857576;76;20885;-68
2021/05/24 08:06:38;;;;;;;1.45;1.20;;;;;;;14.12;100.00;99347.70;1857576;77;21439;-68
2021/05/24 08:09:07;;;;;;;1.90;1.50;;;;;;;14.22;100.00;99351.98;1857575;76;20885;-68
2021/05/24 08:11:34;;;;;;;3.52;2.00;;;;;;;14.31;100.00;99348.29;1857582;76;21580;-68
2021/05/24 08:14:02;;;;;;;4.30;2.65;;;;;;;14.37;100.00;99354.36;1820248;78;20882;-67
2021/05/24 08:16:31;;;;;;;5.33;2.85;;;;;;;14.42;100.00;99351.20;1854118;77;21407;-67
2021/05/24 08:18:59;;;;;;;3.30;2.00;;;;;;;14.51;100.00;99337.34;1820744;78;20952;-67
2021/05/24 08:21:27;;;;;;;3.98;2.12;;;;;;;14.60;100.00;99347.78;1820796;78;20953;-68
2021/05/24 08:23:55;;;;;;;3.77;2.20;;;;;;;14.70;100.00;99355.56;1854293;77;21024;-67
2021/05/24 08:26:23;;;;;;;5.47;2.42;;;;;;;14.79;100.00;99354.06;1819000;78;20869;-67
2021/05/24 08:28:50;;;;;;;3.58;2.37;;;;;;;14.91;100.00;99352.94;1819069;78;20873;-67
2021/05/24 08:31:18;;;;;;;4.03;2.33;;;;;;;15.02;100.00;99356.70;1854210;77;20937;-67
2021/05/24 08:33:45;;;;;;;3.35;1.90;;;;;;;15.14;100.00;99347.63;1820805;78;20896;-67
2021/05/24 08:36:13;;;;;;;1.67;1.50;;;;;;;15.22;100.00;99353.65;1854226;77;21020;-68
2021/05/24 08:38:42;;;;;;;4.80;2.35;;;;;;;15.27;100.00;99347.78;1820611;78;20911;-68
2021/05/24 08:41:09;;;;;;;5.08;2.27;;;;;;;15.32;100.00;99367.16;1854250;77;21361;-68
2021/05/24 08:43:38;;;;;;;1.87;1.32;;;;;;;15.36;100.00;99360.86;1820689;77;21442;-68
2021/05/24 08:46:06;;;;;;;2.60;0.88;;;;;;;15.47;100.00;99354.84;1854277;77;20881;-68
2021/05/24 08:48:34;;;;;;;1.32;0.80;;;;;;;15.61;100.00;99355.92;1820745;78;21046;-68
2021/05/24 08:51:03;;;;;;;1.15;0.80;;;;;;;15.72;100.00;99368.52;1854165;77;20925;-68
2021/05/24 08:53:32;;;;;;;3.50;1.65;;;;;;;15.78;100.00;99360.39;1820758;78;21427;-67
2021/05/24 08:56:00;;;;;;;3.65;2.52;;;;;;;15.92;100.00;99360.94;1854203;77;20953;-67
2021/05/24 08:58:27;;;;;;;2.00;0.90;;;;;;;16.15;100.00;99366.17;1820712;78;20893;-67
2021/05/24 09:00:55;;;;;;;3.05;1.00;;;;;;;16.42;100.00;99365.45;1820729;78;21027;-68
2021/05/24 09:03:29;;;;;;;0.80;0.80;;;;;;;16.97;100.00;99371.53;1854135;77;20920;-68
2021/05/24 09:06:00;;;;;;;1.42;0.85;;;;;;;16.97;100.00;99371.53;1820585;78;20912;-68
2021/05/24 09:08:41;;;;;;;3.00;0.70;;;;;;;17.22;100.00;99376.19;1820820;78;20930;-69
2021/05/24 09:11:32;;;;;;;1.50;0.60;;;;;;;17.28;100.00;99375.55;1801220;77;20916;-69
2021/05/24 09:14:03;;;;;;;3.10;0.70;;;;;;;17.19;100.00;99381.14;1823378;78;21549;-72
2021/05/24 09:16:33;;;;;;;5.10;0.80;;;;;;;16.96;100.00;99377.78;1826711;78;20941;-69
2021/05/24 09:19:14;;;;;;;2.30;0.60;;;;;;;16.74;100.00;99391.28;1860208;77;20940;-68
2021/05/24 09:22:05;;;;;;;3.05;0.85;;;;;;;16.74;100.00;99391.28;1826723;78;21399;-69
2021/05/24 09:24:38;;;;;;;2.70;0.65;;;;;;;16.62;100.00;99407.11;1860303;77;20932;-68
2021/05/24 09:27:07;;;;;;;;;;;;;;;16.62;100.00;99407.11;1829397;78;21247;-67
2021/05/24 09:33:37;;;;;;;2.85;0.60;;;;;;;16.72;100.00;99419.76;1860323;77;20936;-67
2021/05/24 09:36:05;;;;;;;1.00;0.70;;;;;;;16.78;100.00;99445.36;1826666;78;20980;-68
2021/05/24 09:38:50;;;;;;;3.17;0.70;;;;;;;16.73;100.00;99436.61;1860395;77;21039;-68
2021/05/24 09:41:20;;;;;;;1.90;0.42;;;;;;;16.68;100.00;99432.73;1826660;78;21047;-68
2021/05/24 09:43:52;;;;;;;1.12;0.47;;;;;;;16.65;100.00;99433.70;1826593;78;20930;-68
2021/05/24 09:46:28;;;;;;;0.82;0.50;;;;;;;16.57;100.00;99434.77;1860653;77;20935;-67
2021/05/24 09:49:02;;;;;;;0.40;0.40;;;;;;;16.47;100.00;99438.55;1860432;77;20897;-67
2021/05/24 09:51:33;;;;;;;0.70;0.50;;;;;;;16.47;100.00;99438.55;1826675;77;21413;-67
2021/05/24 09:54:11;;;;;;;1.98;0.62;;;;;;;16.48;100.00;99437.64;1825022;78;21051;-68
2021/05/24 09:56:41;;;;;;;0.88;0.45;;;;;;;16.41;100.00;99434.72;1860196;77;21375;-68
2021/05/24 09:59:18;;;;;;;1.25;0.47;;;;;;;16.41;100.00;99434.72;1851916;77;21414;-67
2021/05/24 10:01:52;;;;;;;0.53;0.40;;;;;;;16.36;100.00;99441.49;1852263;77;20928;-68
2021/05/24 10:04:26;;;;;;;1.72;0.68;;;;;;;16.39;100.00;99452.06;1852316;77;21403;-67
2021/05/24 10:06:54;;;;;;;2.12;0.90;;;;;;;16.39;100.00;99452.06;1852228;77;21745;-68
2021/05/24 10:09:23;;;;;;;2.35;0.70;;;;;;;16.64;100.00;99459.00;1852226;77;20845;-68
2021/05/24 10:11:53;;;;;;;2.83;0.57;;;;;;;16.89;100.00;99458.80;1852120;77;20892;-68
2021/05/24 10:14:23;;;;;;;0.98;0.55;;;;;;;17.09;100.00;99469.41;1850550;77;21407;-68
2021/05/24 10:16:57;;;;;;;1.22;0.70;;;;;;;17.18;100.00;99474.49;1849040;77;20942;-68
2021/05/24 10:19:24;;;;;;;1.30;0.57;;;;;;;17.20;100.00;99467.33;1848989;77;21686;-68
2021/05/24 10:21:53;;;;;;;2.37;0.80;;;;;;;17.20;100.00;99467.33;1848904;77;20885;-68
2021/05/24 10:24:21;;;;;;;3.83;0.75;;;;;;;17.22;100.00;99469.48;1849004;77;20897;-68
2021/05/24 10:26:49;;;;;;;2.30;0.72;;;;;;;17.20;100.00;99465.99;1848973;77;20932;-67
2021/05/24 10:29:18;;;;;;;1.12;0.60;;;;;;;17.21;100.00;99471.73;1818938;77;20854;-66
2021/05/24 10:31:46;;;;;;;0.70;0.60;;;;;;;17.28;100.00;99463.52;1819247;77;21086;-68
2021/05/24 10:34:21;;;;;;;3.08;0.60;;;;;;;17.44;100.00;99465.30;1848916;77;20918;-68
2021/05/24 10:37:09;;;;;;;0.40;0.40;;;;;;;17.66;100.00;99460.69;1849133;77;20882;-68
2021/05/24 10:40:02;;;;;;;0.98;0.45;;;;;;;17.85;100.00;99464.58;1848930;77;20893;-68
2021/05/24 10:42:44;;;;;;;1.17;0.60;;;;;;;18.06;100.00;99461.73;1848127;77;20889;-68
2021/05/24 10:45:23;;;;;;;3.05;0.80;;;;;;;18.21;100.00;99470.13;1848985;77;21041;-68
2021/05/24 10:48:01;;;;;;;1.50;0.88;;;;;;;18.28;100.00;99467.27;1848966;77;20901;-68
2021/05/24 10:50:30;;;;;;;1.15;0.50;;;;;;;18.31;100.00;99469.37;1848984;77;20886;-68
2021/05/24 10:53:15;;;;;;;1.95;0.50;;;;;;;18.29;100.00;99475.22;1848939;77;20905;-68
2021/05/24 10:55:44;;;;;;;7.92;0.70;;;;;;;18.32;100.00;99471.58;1848993;77;20949;-67
2021/05/24 10:58:15;;;;;;;2.22;1.10;;;;;;;18.44;100.00;99472.05;1848945;77;21493;-69
2021/05/24 11:01:01;;;;;;;2.73;0.67;;;;;;;18.62;100.00;99462.61;1849151;77;20933;-69
2021/05/24 11:03:29;;;;;;;1.20;0.70;;;;;;;18.79;100.00;99468.25;1848944;77;20850;-69
2021/05/24 11:06:15;;;;;;;0.65;0.60;;;;;;;18.91;100.00;99468.29;1848942;77;20897;-69
2021/05/24 11:09:01;;;;;;;2.20;0.60;;;;;;;18.89;100.00;99474.16;1848901;77;20936;-69
2021/05/24 11:11:32;;;;;;;0.95;0.60;;;;;;;18.90;100.00;99465.20;1848879;77;20889;-68
2021/05/24 11:14:08;;;;;;;0.90;0.60;;;;;;;18.96;100.00;99481.53;1848344;77;20941;-68
2021/05/24 11:16:36;;;;;;;2.20;0.53;;;;;;;19.07;100.00;99461.50;1846873;77;21399;-68
2021/05/24 11:19:11;;;;;;;0.50;0.42;;;;;;;19.26;100.00;99467.06;1846850;77;20870;-68
2021/05/24 11:21:53;;;;;;;2.83;0.60;;;;;;;19.45;100.00;99460.60;1846840;77;20869;-68
2021/05/24 11:24:33;;;;;;;1.77;0.50;;;;;;;19.55;100.00;99462.50;1846194;77;21590;-68
2021/05/24 11:27:12;;;;;;;0.50;0.45;;;;;;;19.59;100.00;99472.16;1842966;77;20905;-68
2021/05/24 11:29:42;;;;;;;3.25;0.93;;;;;;;19.48;100.00;99481.89;1846867;77;20888;-67
2021/05/24 11:32:27;;;;;;;0.70;0.40;;;;;;;19.29;100.00;99484.34;1846826;77;20909;-68
2021/05/24 11:34:56;;;;;;;5.72;0.60;;;;;;;19.08;100.00;99488.66;1846837;77;20890;-67
2021/05/24 11:37:43;;;;;;;3.05;0.70;;;;;;;18.88;100.00;99479.09;1846892;77;21116;-68
2021/05/24 11:40:16;;;;;;;0.70;0.50;;;;;;;18.74;100.00;99479.56;1846757;76;20889;-67
2021/05/24 11:42:44;;;;;;;1.87;0.60;;;;;;;18.62;100.00;99492.00;1846937;76;20866;-68
2021/05/24 11:45:21;;;;;;;0.95;0.57;;;;;;;18.61;100.00;99486.67;1846561;77;20881;-68
2021/05/24 11:47:57;;;;;;;1.87;0.75;;;;;;;18.62;100.00;99489.33;1846732;77;20920;-68
2021/05/24 11:50:28;;;;;;;2.37;0.60;;;;;;;18.67;100.00;99496.73;1846724;77;20900;-68
2021/05/24 11:52:56;;;;;;;1.32;0.95;;;;;;;18.83;100.00;99500.63;1846144;77;20905;-69
2021/05/24 11:55:25;;;;;;;4.17;0.50;;;;;;;19.01;100.00;99512.52;1846307;77;20904;-69
2021/05/24 11:57:53;;;;;;;1.45;0.90;;;;;;;19.15;100.00;99508.03;1820955;77;20936;-69
2021/05/24 12:00:24;;;;;;;55.23;3.37;;;;;;;19.28;100.00;99499.10;1846786;77;20956;-71
2021/05/24 12:02:50;;;;;;;2.45;0.60;;;;;;;19.42;100.00;99500.84;1843923;77;21596;-67
2021/05/24 12:05:19;;;;;;;1.30;0.62;;;;;;;19.62;100.00;99497.00;1828518;77;21009;-67
2021/05/24 12:07:53;;;;;;;0.40;0.40;;;;;;;19.80;100.00;99504.80;1813490;79;21422;-68
2021/05/24 12:10:22;;;;;;;0.68;0.55;;;;;;;19.93;100.00;99508.78;1822414;77;20968;-68
2021/05/24 12:12:49;;;;;;;1.67;0.50;;;;;;;19.99;100.00;99503.19;1822085;78;20966;-70
2021/05/24 12:15:18;;;;;;;2.25;0.75;;;;;;;20.03;100.00;99503.48;1818683;77;21054;-68
2021/05/24 12:17:50;;;;;;;5.10;0.45;;;;;;;20.14;100.00;99507.07;1818648;78;20898;-68
2021/05/24 12:20:18;;;;;;;1.00;0.40;;;;;;;20.20;100.00;99509.98;1823395;77;20928;-68
2021/05/24 12:22:47;;;;;;;2.58;0.47;;;;;;;20.25;100.00;99522.72;1819028;78;20901;-68
2021/05/24 12:25:17;;;;;;;1.27;0.53;;;;;;;20.28;100.00;99527.95;1819033;78;21426;-68
2021/05/24 12:27:47;;;;;;;1.27;0.40;;;;;;;20.32;100.00;99523.75;1819208;77;21047;-68
2021/05/24 12:30:31;;;;;;;1.45;0.28;;;;;;;20.34;100.00;99534.44;1823151;77;20850;-68
2021/05/24 12:33:09;;;;;;;1.72;0.50;;;;;;;20.25;96.80;99534.30;1818600;78;20949;-68
2021/05/24 12:35:44;;;;;;;0.57;0.50;;;;;;;20.17;95.73;99527.50;1818634;78;20921;-68
2021/05/24 12:38:18;;;;;;;1.85;0.50;;;;;;;20.13;95.01;99528.09;1818891;78;20881;-67
2021/05/24 12:40:51;;;;;;;3.98;0.50;;;;;;;19.97;93.45;99527.81;1805936;78;21638;-68
2021/05/24 12:43:18;;;;;;;3.20;0.55;;;;;;;19.90;96.12;99536.14;1805843;78;21407;-64
2021/05/24 12:45:47;;;;;;;0.55;0.40;;;;;;;19.89;99.51;99533.92;1819038;78;20877;-67
2021/05/24 12:48:20;;;;;;;0.68;0.47;;;;;;;19.95;97.58;99529.67;1818943;78;20933;-68
2021/05/24 12:50:49;;;;;;;1.12;0.47;;;;;;;20.02;98.49;99538.34;1819008;78;20897;-68
2021/05/24 12:53:18;;;;;;;0.50;0.40;;;;;;;20.04;99.47;99537.36;1819026;78;21081;-68
2021/05/24 12:55:48;;;;;;;0.95;0.40;;;;;;;20.05;96.49;99540.91;1818969;78;20893;-68
2021/05/24 12:58:17;;;;;;;1.27;0.40;;;;;;;20.09;97.93;99544.75;1819011;78;20846;-68
2021/05/24 13:00:49;;;;;;;1.10;0.40;;;;;;;20.20;97.29;99528.72;1818974;78;20906;-67
2021/05/24 13:03:19;;;;;;;1.85;0.35;;;;;;;20.32;97.26;99541.64;1819209;78;20886;-68
2021/05/24 13:06:07;;;;;;;1.05;0.50;;;;;;;20.47;97.78;99542.89;1819089;79;20980;-64
2021/05/24 13:08:35;;;;;;;1.02;0.42;;;;;;;20.58;96.46;99540.19;1816029;78;20916;-65
2021/05/24 13:11:06;;;;;;;4.90;0.47;;;;;;;20.75;95.87;99536.81;1818999;79;20874;-68